createdAt,value
2019-02-04T00:01:35.120Z,66.60
2019-02-04T00:05:53.311Z,66.50
2019-02-04T00:10:12.383Z,66.40
2019-02-04T00:14:30.827Z,66.30
2019-02-04T00:18:49.011Z,66.50
2019-02-04T00:23:07.051Z,66.50
2019-02-04T00:27:25.557Z,66.60
2019-02-04T00:31:44.054Z,66.70
2019-02-04T00:36:02.641Z,66.60
2019-02-04T00:40:21.714Z,66.50
2019-02-04T00:44:40.385Z,66.30
2019-02-04T00:48:58.465Z,66.30
2019-02-04T00:53:17.675Z,66.20
2019-02-04T00:57:35.930Z,66.20
2019-02-04T01:01:54.212Z,66.10
2019-02-04T01:06:12.549Z,66.20
2019-02-04T01:10:31.504Z,66.10
2019-02-04T01:14:50.113Z,66.30
2019-02-04T01:19:08.659Z,66.30
2019-02-04T01:23:27.540Z,66.30
2019-02-04T01:27:45.707Z,66.20
2019-02-04T01:32:04.208Z,66.30
2019-02-04T01:36:22.356Z,66.20
2019-02-04T01:40:41.876Z,66.30
2019-02-04T01:45:00.047Z,67.20
2019-02-04T01:49:18.527Z,66.60
2019-02-04T01:53:36.864Z,66.60
2019-02-04T01:57:57.200Z,66.70
2019-02-04T02:02:15.478Z,66.80
2019-02-04T02:06:33.620Z,67.50
2019-02-04T02:10:52.129Z,67.10
2019-02-04T02:15:11.294Z,67.10
2019-02-04T02:19:29.780Z,67.10
2019-02-04T02:23:48.048Z,67.10
2019-02-04T02:28:06.884Z,67.20
2019-02-04T02:32:25.208Z,67.20
2019-02-04T02:36:43.955Z,67.20
2019-02-04T02:41:02.108Z,67.10
2019-02-04T02:45:20.301Z,67.30
2019-02-04T02:49:38.435Z,67.20
2019-02-04T02:53:56.566Z,67.10
2019-02-04T02:58:14.695Z,66.90
2019-02-04T03:02:33.026Z,66.80
2019-02-04T03:06:52.260Z,66.60
2019-02-04T03:11:10.870Z,66.40
2019-02-04T03:15:29.121Z,66.40
2019-02-04T03:19:47.469Z,66.30
2019-02-04T03:24:06.375Z,66.20
2019-02-04T03:28:24.864Z,66.00
2019-02-04T03:32:43.398Z,65.90
2019-02-04T03:37:01.475Z,66.70
2019-02-04T03:41:19.526Z,65.90
2019-02-04T03:45:37.635Z,65.90
2019-02-04T03:49:55.765Z,65.60
2019-02-04T03:54:15.059Z,65.50
2019-02-04T03:58:33.135Z,65.40
2019-02-04T04:02:52.090Z,65.20
2019-02-04T04:07:10.139Z,65.00
2019-02-04T04:11:29.003Z,65.00
2019-02-04T04:15:47.466Z,64.90
2019-02-04T04:20:06.356Z,65.00
2019-02-04T04:24:24.981Z,64.90
2019-02-04T04:28:43.218Z,64.90
2019-02-04T04:33:01.565Z,64.90
2019-02-04T04:37:19.671Z,65.10
2019-02-04T04:41:38.435Z,65.10
2019-02-04T04:45:57.023Z,65.00
2019-02-04T04:50:16.134Z,64.90
2019-02-04T04:54:34.298Z,65.10
2019-02-04T04:58:52.453Z,65.30
2019-02-04T05:03:10.599Z,65.40
2019-02-04T05:07:29.501Z,65.30
2019-02-04T05:11:47.789Z,65.40
2019-02-04T05:16:05.897Z,65.40
2019-02-04T05:20:24.517Z,65.30
2019-02-04T05:24:43.142Z,65.40
2019-02-04T05:29:01.502Z,65.40
2019-02-04T05:33:19.646Z,65.30
2019-02-04T05:37:38.086Z,65.50
2019-02-04T05:41:56.492Z,65.50
2019-02-04T05:46:14.632Z,65.60
2019-02-04T05:50:33.312Z,65.60
2019-02-04T05:54:51.617Z,65.60
2019-02-04T05:59:09.903Z,65.70
2019-02-04T06:03:28.042Z,65.70
2019-02-04T06:07:46.276Z,65.60
2019-02-04T06:12:05.849Z,65.60
2019-02-04T06:16:24.100Z,65.70
2019-02-04T06:20:42.346Z,65.90
2019-02-04T06:25:01.171Z,65.90
2019-02-04T06:29:19.942Z,65.80
2019-02-04T06:33:38.107Z,65.80
2019-02-04T06:37:56.247Z,65.80
2019-02-04T06:42:14.582Z,65.90
2019-02-04T06:46:32.713Z,65.70
2019-02-04T06:50:51.166Z,65.80
2019-02-04T06:55:14.145Z,66.00
2019-02-04T06:59:33.246Z,66.00
2019-02-04T07:03:52.221Z,66.00
2019-02-04T07:08:10.206Z,66.00
2019-02-04T07:12:28.265Z,66.10
2019-02-04T07:16:46.751Z,66.30
2019-02-04T07:21:04.884Z,66.50
2019-02-04T07:25:24.473Z,66.60
2019-02-04T07:29:43.569Z,67.00
2019-02-04T07:34:01.776Z,66.70
2019-02-04T07:38:20.414Z,66.80
2019-02-04T07:42:38.734Z,66.80
2019-02-04T07:46:56.970Z,66.90
2019-02-04T07:51:15.629Z,66.90
2019-02-04T07:55:33.665Z,67.00
2019-02-04T07:59:51.758Z,67.10
2019-02-04T08:04:10.361Z,67.20
2019-02-04T08:08:28.355Z,67.30
2019-02-04T08:12:46.882Z,67.40
2019-02-04T08:17:05.344Z,67.40
2019-02-04T08:21:23.507Z,67.50
2019-02-04T08:25:41.921Z,67.50
2019-02-04T08:29:59.982Z,67.60
2019-02-04T08:34:18.510Z,67.70
2019-02-04T08:38:37.051Z,67.90
2019-02-04T08:42:55.381Z,68.10
2019-02-04T08:47:22.498Z,68.20
2019-02-04T08:51:33.699Z,68.30
2019-02-04T08:55:52.608Z,68.70
2019-02-04T09:00:14.291Z,69.10
2019-02-04T09:04:33.039Z,69.30
2019-02-04T09:08:51.324Z,69.50
2019-02-04T09:13:09.787Z,69.50
2019-02-04T09:17:28.273Z,69.50
2019-02-04T09:21:46.851Z,69.30
2019-02-04T09:26:06.216Z,69.30
2019-02-04T09:30:26.448Z,69.40
2019-02-04T09:34:44.608Z,69.50
2019-02-04T09:39:02.594Z,69.20
2019-02-04T09:43:21.373Z,69.30
2019-02-04T09:47:39.965Z,69.50
2019-02-04T09:51:58.297Z,69.70
2019-02-04T09:56:16.538Z,69.90
2019-02-04T10:00:36.271Z,70.00
2019-02-04T10:04:54.419Z,69.80
2019-02-04T10:09:12.997Z,70.00
2019-02-04T10:13:31.086Z,70.10
2019-02-04T10:17:49.225Z,70.10
2019-02-04T10:22:08.061Z,70.10
2019-02-04T10:26:26.113Z,69.80
2019-02-04T10:30:44.448Z,69.50
2019-02-04T10:35:02.939Z,69.60
2019-02-04T10:39:20.995Z,69.10
2019-02-04T10:43:39.210Z,68.90
2019-02-04T10:47:57.431Z,69.00
2019-02-04T10:52:16.001Z,72.60
2019-02-04T10:56:34.113Z,78.00
2019-02-04T11:00:52.398Z,82.80
2019-02-04T11:05:14.447Z,85.10
2019-02-04T11:09:33.460Z,85.50
2019-02-04T11:13:51.529Z,83.20
2019-02-04T11:18:11.405Z,80.00
2019-02-04T11:22:29.723Z,75.60
2019-02-04T11:26:47.960Z,73.90
2019-02-04T11:31:10.565Z,72.80
2019-02-04T11:35:28.843Z,70.10
2019-02-04T11:39:46.971Z,66.00
2019-02-04T11:44:05.499Z,64.30
2019-02-04T11:48:23.835Z,62.40
2019-02-04T11:52:42.088Z,61.10
2019-02-04T11:57:00.093Z,60.20
2019-02-04T12:01:18.556Z,60.10
2019-02-04T12:05:36.711Z,59.90
2019-02-04T12:09:55.410Z,60.10
2019-02-04T12:14:13.712Z,60.50
2019-02-04T12:18:32.618Z,60.80
2019-02-04T12:22:51.535Z,60.80
2019-02-04T12:27:09.928Z,61.90
2019-02-04T12:31:28.666Z,62.00
2019-02-04T12:35:47.860Z,61.90
2019-02-04T12:40:08.412Z,62.10
2019-02-04T12:44:26.634Z,60.90
2019-02-04T12:48:45.126Z,62.80
2019-02-04T12:53:04.165Z,61.40
2019-02-04T12:57:22.301Z,63.70
2019-02-04T13:01:40.586Z,64.40
2019-02-04T13:06:00.688Z,64.20
2019-02-04T13:10:19.193Z,64.90
2019-02-04T13:14:37.246Z,63.60
2019-02-04T13:18:55.571Z,63.30
2019-02-04T13:23:13.782Z,64.70
2019-02-04T13:27:32.383Z,64.90
2019-02-04T13:31:50.606Z,64.80
2019-02-04T13:36:09.521Z,64.80
2019-02-04T13:40:29.313Z,65.30
2019-02-04T13:44:47.355Z,64.50
2019-02-04T13:49:05.821Z,63.90
2019-02-04T13:53:26.903Z,63.20
2019-02-04T13:57:44.553Z,62.90
2019-02-04T14:02:03.059Z,63.00
2019-02-04T14:06:21.224Z,63.10
2019-02-04T14:10:46.092Z,63.40
2019-02-04T14:15:17.454Z,63.40
2019-02-04T14:19:41.504Z,63.20
2019-02-04T14:24:00.125Z,62.90
2019-02-04T14:28:18.422Z,62.80
2019-02-04T14:32:36.828Z,62.50
2019-02-04T14:36:56.997Z,62.30
2019-02-04T14:41:15.250Z,61.70
2019-02-04T14:46:29.151Z,61.10
2019-02-04T14:51:58.786Z,61.20
2019-02-04T14:57:08.257Z,60.60
2019-02-04T15:02:27.994Z,61.20
2019-02-04T15:07:40.939Z,60.50
2019-02-04T15:12:50.103Z,60.90
2019-02-04T15:17:47.292Z,60.50
2019-02-04T15:22:55.335Z,60.70
2019-02-04T15:28:11.078Z,60.50
2019-02-04T15:33:26.880Z,60.20
2019-02-04T15:38:52.575Z,60.10
2019-02-04T15:44:08.728Z,60.10
2019-02-04T15:48:45.135Z,59.80
2019-02-04T15:53:03.750Z,59.80
2019-02-04T15:57:21.808Z,59.80
2019-02-04T16:01:40.334Z,59.70
2019-02-04T16:05:58.478Z,59.60
2019-02-04T16:10:18.398Z,59.70
2019-02-04T16:14:36.562Z,59.70
2019-02-04T16:18:54.643Z,59.60
2019-02-04T16:23:14.619Z,59.30
2019-02-04T16:27:32.869Z,59.60
2019-02-04T16:31:52.069Z,59.70
2019-02-04T16:36:10.264Z,59.60
2019-02-04T16:40:29.045Z,59.70
2019-02-04T16:44:47.565Z,59.80
2019-02-04T16:49:06.163Z,59.70
2019-02-04T16:53:24.491Z,59.80
2019-02-04T16:57:45.869Z,59.70
2019-02-04T17:02:04.260Z,59.70
2019-02-04T17:06:22.768Z,59.80
2019-02-04T17:10:41.537Z,59.90
2019-02-04T17:15:01.512Z,59.70
2019-02-04T17:19:20.066Z,59.90
2019-02-04T17:23:38.257Z,59.90
2019-02-04T17:27:57.122Z,59.90
2019-02-04T17:32:16.701Z,60.00
2019-02-04T17:36:34.992Z,60.00
2019-02-04T17:40:54.542Z,59.80
2019-02-04T17:45:14.889Z,59.90
2019-02-04T17:49:34.016Z,59.80
2019-02-04T17:53:54.011Z,59.70
2019-02-04T17:58:13.377Z,59.80
2019-02-04T18:02:31.977Z,60.00
2019-02-04T18:06:50.016Z,60.10
2019-02-04T18:11:08.330Z,60.10
2019-02-04T18:15:27.250Z,60.30
2019-02-04T18:19:47.900Z,60.40
2019-02-04T18:24:09.037Z,60.20
2019-02-04T18:28:27.780Z,60.20
2019-02-04T18:32:47.655Z,60.10
2019-02-04T18:37:06.045Z,60.30
2019-02-04T18:41:24.876Z,60.00
2019-02-04T18:45:43.491Z,60.90
2019-02-04T18:50:01.653Z,60.10
2019-02-04T18:54:21.664Z,60.10
2019-02-04T18:58:40.962Z,60.20
2019-02-04T19:03:00.033Z,60.30
2019-02-04T19:07:18.084Z,60.40
2019-02-04T19:11:36.552Z,60.50
2019-02-04T19:15:54.768Z,60.70
2019-02-04T19:20:16.181Z,60.70
2019-02-04T19:24:34.814Z,61.00
2019-02-04T19:28:53.776Z,60.90
2019-02-04T19:33:13.978Z,61.00
2019-02-04T19:37:32.664Z,61.00
2019-02-04T19:41:51.781Z,61.10
2019-02-04T19:46:10.498Z,60.90
2019-02-04T19:50:31.547Z,60.90
2019-02-04T19:54:49.830Z,61.00
2019-02-04T19:59:09.279Z,61.10
2019-02-04T20:03:29.475Z,61.00
2019-02-04T20:07:47.625Z,60.90
2019-02-04T20:12:07.033Z,60.70
2019-02-04T20:16:27.796Z,60.90
2019-02-04T20:20:46.477Z,61.10
2019-02-04T20:25:06.555Z,60.90
2019-02-04T20:29:24.919Z,61.00
2019-02-04T20:33:44.107Z,60.90
2019-02-04T20:38:05.293Z,60.80
2019-02-04T20:42:23.762Z,61.00
2019-02-04T20:46:42.782Z,61.20
2019-02-04T20:51:02.980Z,61.20
2019-02-04T20:55:21.537Z,61.10
2019-02-04T20:59:40.177Z,61.10
2019-02-04T21:03:58.670Z,61.10
2019-02-04T21:08:16.909Z,61.10
2019-02-04T21:12:35.352Z,61.20
2019-02-04T21:16:53.455Z,61.20
2019-02-04T21:21:11.945Z,61.20
2019-02-04T21:25:30.316Z,61.10
2019-02-04T21:29:48.787Z,62.10
2019-02-04T21:34:07.649Z,61.50
2019-02-04T21:38:26.267Z,61.60
2019-02-04T21:42:45.187Z,61.70
2019-02-04T21:47:03.407Z,61.80
2019-02-04T21:51:21.915Z,61.80
2019-02-04T21:55:40.473Z,61.90
2019-02-04T21:59:59.262Z,61.80
2019-02-04T22:04:17.604Z,62.00
2019-02-04T22:08:35.646Z,62.10
2019-02-04T22:12:54.290Z,62.10
2019-02-04T22:17:12.431Z,62.10
2019-02-04T22:21:31.163Z,62.10
2019-02-04T22:25:50.199Z,62.00
2019-02-04T22:30:13.441Z,62.00
2019-02-04T22:34:31.979Z,62.10
2019-02-04T22:38:49.955Z,62.10
2019-02-04T22:43:08.447Z,61.90
2019-02-04T22:47:26.629Z,62.10
2019-02-04T22:51:45.467Z,62.10
2019-02-04T22:56:03.454Z,62.10
2019-02-04T23:01:10.898Z,62.10
2019-02-04T23:05:29.207Z,62.10
2019-02-04T23:09:47.853Z,61.90
2019-02-04T23:14:07.069Z,62.00
2019-02-04T23:18:25.856Z,62.10
2019-02-04T23:22:44.329Z,62.20
2019-02-04T23:27:02.380Z,62.00
2019-02-04T23:31:20.454Z,62.00
2019-02-04T23:35:39.434Z,62.10
2019-02-04T23:39:57.586Z,62.10
2019-02-04T23:44:16.036Z,62.00
2019-02-04T23:48:34.179Z,62.00
2019-02-04T23:52:52.478Z,62.10
2019-02-04T23:57:10.441Z,62.10
